Airfield :
LOGIN :

Register | Disclaimer

   EN    FR    IT 

 










Legend :    VFR   Marginal VFR   IFR   Intensive IFR   Very Intensive IFR
Visi :
Ceiling :
>= 8 km
>= 3000ft
5 to 8 km
1000 to 3000 ft
1500m to 5 km
500 to 1000 ft
800 to 1500m
200 to 500 ft
< 800m
< 200 ft
Symbols :   Thunderstorms  Fog  Heavy snow  Heavy precipitations  Wind > 20 kt
SIGMETs :     Misc.  Thunderstorms  Icing  Turbulence  Mountain Waves  Volcanic Ashes






- Airport Elevation : 796 ft
- IATA code : SYT


LFLN - Saint-Yan

CURRENT METAR :
  • 130430Z AUTO 18010KT 8000 -RA BKN022 OVC028 07/07 Q0982

EXPIRED METARs :
  • 130400Z AUTO 18010KT 8000 -RA FEW012/// BKN024/// BKN029/// ///CB 07/07 Q0983
  • 130330Z AUTO 18008KT 9999 -RA FEW019/// SCT025/// BKN033/// ///CB 07/06 Q0984
  • 130300Z AUTO 17010KT 9999 RA BKN024/// BKN036/// BKN044/// ///CB 07/06 Q0986
  • 130230Z AUTO 18010KT 7000 -RA FEW020/// OVC027/// ///CB 07/06 Q0986
  • 130200Z AUTO 17011KT 9999 -RA BKN029/// BKN036/// OVC046/// ///CB 07/06 Q0987

Expired Forecast.



MET'MAP, your aeronautical weather chart ! - Copyright ORBIFLY December 2007 - Disclaimer

ORBIFLY MET'MAP TEAM :

Programming & Development : Alexandra Zaïnal
Concept & original design : Baudouin d'Aumeries
Assistance for programming : Marc-Olivier Méhu
Technical & hardware support : Manuel Goepfert

Contact : metmap@orbifly.com




SOURCES & CREDITS :

   NOAA